createdAt,value
2022-09-27T00:00:28.658Z,987.1
2022-09-27T00:01:31.280Z,987.1
2022-09-27T00:02:34.901Z,987.1
2022-09-27T00:03:37.706Z,987.1
2022-09-27T00:04:40.854Z,987.1
2022-09-27T00:05:44.502Z,987.1
2022-09-27T00:06:47.868Z,987.1
2022-09-27T00:07:50.760Z,987
2022-09-27T00:08:54.219Z,987
2022-09-27T00:09:57.157Z,987
2022-09-27T00:10:59.875Z,987.1
2022-09-27T00:12:03.252Z,987.1
2022-09-27T00:13:06.111Z,987
2022-09-27T00:14:09.112Z,987
2022-09-27T00:15:12.094Z,987
2022-09-27T00:16:16.461Z,987
2022-09-27T00:17:19.251Z,987
2022-09-27T00:18:22.602Z,987
2022-09-27T00:19:25.593Z,987
2022-09-27T00:20:28.738Z,987
2022-09-27T00:21:31.804Z,987
2022-09-27T00:22:34.885Z,987
2022-09-27T00:23:37.491Z,987
2022-09-27T00:24:40.744Z,987
2022-09-27T00:25:43.745Z,987
2022-09-27T00:26:47.254Z,987
2022-09-27T00:27:50.331Z,987
2022-09-27T00:28:53.689Z,987
2022-09-27T00:29:56.505Z,987
2022-09-27T00:31:00.336Z,987
2022-09-27T00:32:04.915Z,987
2022-09-27T00:33:08.417Z,987
2022-09-27T00:34:11.213Z,987
2022-09-27T00:35:13.744Z,987
2022-09-27T00:36:17.156Z,987
2022-09-27T00:37:20.582Z,986.9
2022-09-27T00:38:23.687Z,986.9
2022-09-27T00:39:26.836Z,987
2022-09-27T00:40:29.944Z,986.9
2022-09-27T00:41:33.131Z,987
2022-09-27T00:42:35.370Z,986.9
2022-09-27T00:43:38.237Z,986.9
2022-09-27T00:44:41.107Z,986.9
2022-09-27T00:45:44.566Z,986.9
2022-09-27T00:46:47.858Z,986.9
2022-09-27T00:47:51.961Z,986.9
2022-09-27T00:48:55.335Z,986.9
2022-09-27T00:49:57.943Z,986.8
2022-09-27T00:51:01.003Z,986.8
2022-09-27T00:52:04.104Z,986.8
2022-09-27T00:53:07.523Z,986.8
2022-09-27T00:54:09.991Z,986.8
2022-09-27T00:55:13.497Z,986.8
2022-09-27T00:56:16.012Z,986.8
2022-09-27T00:57:19.493Z,986.7
2022-09-27T00:58:22.166Z,986.7
2022-09-27T00:59:25.622Z,986.7
2022-09-27T01:00:28.136Z,986.7
2022-09-27T01:01:31.166Z,986.7
2022-09-27T01:02:35.364Z,986.7
2022-09-27T01:03:39.616Z,986.7
2022-09-27T01:04:42.519Z,986.7
2022-09-27T01:05:45.037Z,986.6
2022-09-27T01:06:48.138Z,986.6
2022-09-27T01:07:51.281Z,986.6
2022-09-27T01:08:55.009Z,986.6
2022-09-27T01:09:58.461Z,986.5
2022-09-27T01:11:01.059Z,986.5
2022-09-27T01:12:04.500Z,986.5
2022-09-27T01:13:08.510Z,986.5
2022-09-27T01:14:11.295Z,986.5
2022-09-27T01:15:14.753Z,986.5
2022-09-27T01:16:18.056Z,986.5
2022-09-27T01:17:21.726Z,986.4
2022-09-27T01:18:24.799Z,986.4
2022-09-27T01:19:28.696Z,986.4
2022-09-27T01:20:31.518Z,986.4
2022-09-27T01:21:35.169Z,986.4
2022-09-27T01:22:37.695Z,986.3
2022-09-27T01:23:39.929Z,986.4
2022-09-27T01:24:42.924Z,986.4
2022-09-27T01:25:46.262Z,986.4
2022-09-27T01:26:49.431Z,986.3
2022-09-27T01:27:52.779Z,986.4
2022-09-27T01:28:56.200Z,986.3
2022-09-27T01:29:59.356Z,986.3
2022-09-27T01:31:02.266Z,986.3
2022-09-27T01:32:04.920Z,986.3
2022-09-27T01:33:08.017Z,986.3
2022-09-27T01:34:11.107Z,986.3
2022-09-27T01:35:15.195Z,986.3
2022-09-27T01:36:18.294Z,986.2
2022-09-27T01:37:21.428Z,986.2
2022-09-27T01:38:24.866Z,986.2
2022-09-27T01:39:27.679Z,986.3
2022-09-27T01:40:30.810Z,986.3
2022-09-27T01:41:33.855Z,986.2
2022-09-27T01:42:36.715Z,986.2
2022-09-27T01:43:40.149Z,986.2
2022-09-27T01:44:43.206Z,986.2
2022-09-27T01:45:46.803Z,986.2
2022-09-27T01:46:50.235Z,986.2
2022-09-27T01:47:53.759Z,986.2
2022-09-27T01:48:56.490Z,986.2
2022-09-27T01:49:59.012Z,986.2
2022-09-27T01:51:02.892Z,986.1
2022-09-27T01:52:05.999Z,986.1
2022-09-27T01:53:09.229Z,986.1
2022-09-27T01:54:12.016Z,986.1
2022-09-27T01:55:15.173Z,986.1
2022-09-27T01:56:18.058Z,986.1
2022-09-27T01:57:20.973Z,986.1
2022-09-27T01:58:23.511Z,986.1
2022-09-27T01:59:26.413Z,986.1
2022-09-27T02:00:29.579Z,986.1
2022-09-27T02:01:32.931Z,986.1
2022-09-27T02:02:36.959Z,986.1
2022-09-27T02:03:40.763Z,986.1
2022-09-27T02:04:43.766Z,986.1
2022-09-27T02:05:46.983Z,986.1
2022-09-27T02:06:50.799Z,986
2022-09-27T02:07:53.984Z,986
2022-09-27T02:08:56.869Z,986
2022-09-27T02:09:59.655Z,985.9
2022-09-27T02:11:02.541Z,985.9
2022-09-27T02:12:05.994Z,985.9
2022-09-27T02:13:08.314Z,985.9
2022-09-27T02:14:11.104Z,986
2022-09-27T02:15:13.698Z,985.9
2022-09-27T02:16:16.949Z,985.8
2022-09-27T02:17:20.819Z,985.8
2022-09-27T02:18:23.903Z,985.8
2022-09-27T02:19:27.085Z,985.8
2022-09-27T02:20:29.978Z,985.8
2022-09-27T02:21:33.149Z,985.9
2022-09-27T02:22:36.705Z,985.8
2022-09-27T02:23:39.245Z,985.8
2022-09-27T02:24:41.951Z,985.8
2022-09-27T02:25:44.851Z,985.8
2022-09-27T02:26:47.934Z,985.8
2022-09-27T02:27:51.017Z,985.7
2022-09-27T02:28:54.442Z,985.7
2022-09-27T02:29:57.873Z,985.7
2022-09-27T02:31:00.880Z,985.7
2022-09-27T02:32:04.132Z,985.7
2022-09-27T02:33:07.563Z,985.8
2022-09-27T02:34:10.554Z,985.8
2022-09-27T02:35:13.376Z,985.7
2022-09-27T02:36:16.186Z,985.8
2022-09-27T02:37:19.633Z,985.7
2022-09-27T02:38:23.505Z,985.7
2022-09-27T02:39:26.690Z,985.7
2022-09-27T02:40:30.211Z,985.7
2022-09-27T02:41:33.686Z,985.7
2022-09-27T02:42:36.194Z,985.7
2022-09-27T02:43:39.139Z,985.7
2022-09-27T02:44:42.590Z,985.7
2022-09-27T02:45:46.046Z,985.7
2022-09-27T02:46:49.347Z,985.7
2022-09-27T02:47:52.779Z,985.6
2022-09-27T02:48:55.665Z,985.6
2022-09-27T02:49:59.006Z,985.6
2022-09-27T02:51:02.134Z,985.6
2022-09-27T02:52:05.676Z,985.7
2022-09-27T02:53:09.437Z,985.7
2022-09-27T02:54:13.313Z,985.7
2022-09-27T02:55:15.508Z,985.7
2022-09-27T02:56:18.860Z,985.7
2022-09-27T02:57:20.913Z,985.7
2022-09-27T02:58:24.268Z,985.6
2022-09-27T02:59:27.993Z,985.6
2022-09-27T03:00:30.793Z,985.6
2022-09-27T03:01:34.093Z,985.6
2022-09-27T03:02:37.176Z,985.6
2022-09-27T03:03:40.771Z,985.6
2022-09-27T03:04:44.230Z,985.7
2022-09-27T03:05:46.389Z,985.6
2022-09-27T03:06:49.459Z,985.6
2022-09-27T03:07:52.162Z,985.6
2022-09-27T03:08:54.667Z,985.6
2022-09-27T03:09:58.761Z,985.5
2022-09-27T03:11:01.417Z,985.5
2022-09-27T03:12:05.103Z,985.5
2022-09-27T03:13:08.197Z,985.4
2022-09-27T03:14:11.189Z,985.4
2022-09-27T03:15:14.052Z,985.4
2022-09-27T03:16:16.887Z,985.4
2022-09-27T03:17:20.219Z,985.4
2022-09-27T03:18:23.382Z,985.4
2022-09-27T03:19:26.720Z,985.4
2022-09-27T03:20:29.427Z,985.4
2022-09-27T03:21:32.772Z,985.4
2022-09-27T03:22:35.913Z,985.4
2022-09-27T03:23:38.823Z,985.4
2022-09-27T03:24:41.409Z,985.4
2022-09-27T03:25:45.578Z,985.4
2022-09-27T03:26:48.401Z,985.4
2022-09-27T03:27:50.632Z,985.3
2022-09-27T03:28:53.700Z,985.3
2022-09-27T03:29:56.490Z,985.3
2022-09-27T03:30:59.496Z,985.3
2022-09-27T03:32:02.336Z,985.3
2022-09-27T03:33:04.769Z,985.3
2022-09-27T03:34:07.093Z,985.3
2022-09-27T03:35:09.978Z,985.3
2022-09-27T03:36:12.571Z,985.3
2022-09-27T03:37:15.358Z,985.3
2022-09-27T03:38:17.533Z,985.3
2022-09-27T03:39:20.729Z,985.2
2022-09-27T03:40:24.012Z,985.2
2022-09-27T03:41:28.454Z,985.2
2022-09-27T03:42:31.081Z,985.2
2022-09-27T03:43:34.146Z,985.2
2022-09-27T03:44:37.568Z,985.2
2022-09-27T03:45:40.167Z,985.2
2022-09-27T03:46:43.890Z,985.2
2022-09-27T03:47:46.828Z,985.2
2022-09-27T03:48:49.552Z,985.2
2022-09-27T03:49:52.559Z,985.1
2022-09-27T03:50:55.364Z,985.1
2022-09-27T03:51:57.525Z,985.1
2022-09-27T03:53:00.318Z,985.1
2022-09-27T03:54:03.680Z,985.1
2022-09-27T03:55:07.154Z,985.1
2022-09-27T03:56:10.325Z,985.1
2022-09-27T03:57:14.450Z,985.1
2022-09-27T03:58:17.476Z,985
2022-09-27T03:59:20.174Z,985
2022-09-27T04:00:23.168Z,985.1
2022-09-27T04:01:26.224Z,985.1
2022-09-27T04:02:30.009Z,985
2022-09-27T04:03:33.316Z,985
2022-09-27T04:04:36.664Z,985
2022-09-27T04:05:39.954Z,985
2022-09-27T04:06:43.218Z,984.9
2022-09-27T04:07:46.457Z,985
2022-09-27T04:08:49.456Z,984.9
2022-09-27T04:09:52.815Z,985
2022-09-27T04:10:55.580Z,984.9
2022-09-27T04:11:58.086Z,984.9
2022-09-27T04:13:02.245Z,984.9
2022-09-27T04:14:05.406Z,984.9
2022-09-27T04:15:08.565Z,984.9
2022-09-27T04:16:11.359Z,984.9
2022-09-27T04:17:14.886Z,984.9
2022-09-27T04:18:18.056Z,984.9
2022-09-27T04:19:21.470Z,984.9
2022-09-27T04:20:24.621Z,984.9
2022-09-27T04:21:27.684Z,984.9
2022-09-27T04:22:30.837Z,984.9
2022-09-27T04:23:33.633Z,984.9
2022-09-27T04:24:36.895Z,984.9
2022-09-27T04:25:39.997Z,984.9
2022-09-27T04:26:42.593Z,984.9
2022-09-27T04:27:45.490Z,984.9
2022-09-27T04:28:55.082Z,984.9
2022-09-27T04:29:58.513Z,984.9
2022-09-27T04:31:02.685Z,984.8
2022-09-27T04:32:06.222Z,984.8
2022-09-27T04:33:08.915Z,984.8
2022-09-27T04:34:11.720Z,984.8
2022-09-27T04:35:15.201Z,984.8
2022-09-27T04:36:17.657Z,984.8
2022-09-27T04:37:21.102Z,984.8
2022-09-27T04:38:24.244Z,984.8
2022-09-27T04:39:26.871Z,984.8
2022-09-27T04:40:29.770Z,984.8
2022-09-27T04:41:33.862Z,984.8
2022-09-27T04:42:36.877Z,984.8
2022-09-27T04:43:39.396Z,984.8
2022-09-27T04:44:43.496Z,984.8
2022-09-27T04:45:46.783Z,984.8
2022-09-27T04:46:50.897Z,984.8
2022-09-27T04:47:53.409Z,984.8
2022-09-27T04:48:55.740Z,984.8
2022-09-27T04:49:58.456Z,984.8
2022-09-27T04:51:01.527Z,984.8
2022-09-27T04:52:04.328Z,984.8
2022-09-27T04:53:07.484Z,984.8
2022-09-27T04:54:10.620Z,984.8
2022-09-27T04:55:12.942Z,984.7
2022-09-27T04:56:16.664Z,984.8
2022-09-27T04:57:18.894Z,984.7
2022-09-27T04:58:21.700Z,984.8
2022-09-27T04:59:24.299Z,984.8
2022-09-27T05:00:28.421Z,984.8
2022-09-27T05:01:31.388Z,984.8
2022-09-27T05:02:35.895Z,984.8
2022-09-27T05:03:39.818Z,984.7
2022-09-27T05:04:42.816Z,984.8
2022-09-27T05:05:46.043Z,984.7
2022-09-27T05:06:57.130Z,984.8
2022-09-27T05:08:00.779Z,984.8
2022-09-27T05:09:04.115Z,984.7
2022-09-27T05:10:07.541Z,984.7
2022-09-27T05:11:11.005Z,984.8
2022-09-27T05:12:13.795Z,984.7
2022-09-27T05:13:17.256Z,984.7
2022-09-27T05:14:20.258Z,984.8
2022-09-27T05:15:23.748Z,984.7
2022-09-27T05:16:33.885Z,984.8
2022-09-27T05:17:37.674Z,984.7
2022-09-27T05:18:41.104Z,984.7
2022-09-27T05:19:43.683Z,984.7
2022-09-27T05:20:46.667Z,984.7
2022-09-27T05:21:50.114Z,984.7
2022-09-27T05:22:53.641Z,984.7
2022-09-27T05:23:56.067Z,984.7
2022-09-27T05:24:59.134Z,984.7
2022-09-27T05:26:02.100Z,984.7
2022-09-27T05:27:04.899Z,984.7
2022-09-27T05:28:07.775Z,984.7
2022-09-27T05:29:11.359Z,984.7
2022-09-27T05:30:14.309Z,984.6
2022-09-27T05:31:17.832Z,984.7
2022-09-27T05:32:22.389Z,984.7
2022-09-27T05:33:25.003Z,984.7
2022-09-27T05:34:27.598Z,984.7
2022-09-27T05:35:30.821Z,984.7
2022-09-27T05:36:33.691Z,984.7
2022-09-27T05:37:36.951Z,984.7
2022-09-27T05:38:40.672Z,984.7
2022-09-27T05:39:43.533Z,984.7
2022-09-27T05:40:46.681Z,984.7
2022-09-27T05:42:54.245Z,984.7
2022-09-27T05:43:57.590Z,984.7
2022-09-27T05:45:00.743Z,984.7
2022-09-27T05:46:03.759Z,984.7
2022-09-27T05:47:06.824Z,984.7
2022-09-27T05:48:10.694Z,984.7
2022-09-27T05:49:13.862Z,984.7
2022-09-27T05:50:17.009Z,984.7
2022-09-27T05:51:19.453Z,984.7
2022-09-27T05:52:23.817Z,984.7
2022-09-27T05:53:26.885Z,984.7
2022-09-27T05:54:29.682Z,984.8
2022-09-27T05:55:32.780Z,984.7
2022-09-27T05:56:36.219Z,984.7
2022-09-27T05:57:39.383Z,984.7
2022-09-27T05:58:42.522Z,984.7
2022-09-27T05:59:45.721Z,984.7
2022-09-27T06:00:48.876Z,984.7
2022-09-27T06:01:51.779Z,984.8
2022-09-27T06:02:54.952Z,984.7
2022-09-27T06:03:59.522Z,984.7
2022-09-27T06:05:02.239Z,984.7
2022-09-27T06:06:04.943Z,984.8
2022-09-27T06:07:07.604Z,984.8
2022-09-27T06:08:10.398Z,984.8
2022-09-27T06:09:14.145Z,984.8
2022-09-27T06:10:18.694Z,984.8
2022-09-27T06:11:21.294Z,984.8
2022-09-27T06:12:24.193Z,984.7
2022-09-27T06:13:27.851Z,984.7
2022-09-27T06:14:31.274Z,984.7
2022-09-27T06:15:33.987Z,984.7
2022-09-27T06:16:37.549Z,984.7
2022-09-27T06:17:41.066Z,984.7
2022-09-27T06:18:44.155Z,984.7
2022-09-27T06:19:47.982Z,984.7
2022-09-27T06:20:51.153Z,984.7
2022-09-27T06:21:54.210Z,984.7
2022-09-27T06:22:57.337Z,984.7
2022-09-27T06:24:00.475Z,984.7
2022-09-27T06:25:03.622Z,984.7
2022-09-27T06:26:06.207Z,984.7
2022-09-27T06:27:09.102Z,984.7
2022-09-27T06:28:11.974Z,984.6
2022-09-27T06:29:15.505Z,984.7
2022-09-27T06:30:20.991Z,984.7
2022-09-27T06:31:24.230Z,984.7
2022-09-27T06:32:27.653Z,984.7
2022-09-27T06:33:30.776Z,984.6
2022-09-27T06:34:34.230Z,984.7
2022-09-27T06:35:38.427Z,984.7
2022-09-27T06:36:41.804Z,984.7
2022-09-27T06:37:45.905Z,984.6
2022-09-27T06:38:49.171Z,984.6
2022-09-27T06:39:51.983Z,984.6
2022-09-27T06:40:55.012Z,984.6
2022-09-27T06:41:58.448Z,984.6
2022-09-27T06:43:01.678Z,984.6
2022-09-27T06:44:04.753Z,984.7
2022-09-27T06:45:07.590Z,984.6
2022-09-27T06:46:10.326Z,984.7
2022-09-27T06:47:14.077Z,984.7
2022-09-27T06:48:17.333Z,984.7
2022-09-27T06:49:20.071Z,984.7
2022-09-27T06:50:23.589Z,984.7
2022-09-27T06:51:27.387Z,984.7
2022-09-27T06:52:30.475Z,984.7
2022-09-27T06:53:33.713Z,984.7
2022-09-27T06:54:35.870Z,984.6
2022-09-27T06:55:39.006Z,984.7
2022-09-27T06:56:42.082Z,984.7
2022-09-27T06:57:45.861Z,984.7
2022-09-27T06:58:48.650Z,984.7
2022-09-27T06:59:51.527Z,984.8
2022-09-27T07:00:54.998Z,984.8
2022-09-27T07:01:58.535Z,984.7
2022-09-27T07:03:01.886Z,984.8
2022-09-27T07:04:05.316Z,984.8
2022-09-27T07:05:08.410Z,984.8
2022-09-27T07:06:11.504Z,984.9
2022-09-27T07:07:15.595Z,984.8
2022-09-27T07:08:18.798Z,984.8
2022-09-27T07:09:22.222Z,984.9
2022-09-27T07:10:24.815Z,984.8
2022-09-27T07:11:28.232Z,984.8
2022-09-27T07:12:31.726Z,984.8
2022-09-27T07:13:35.083Z,984.8
2022-09-27T07:14:38.785Z,984.8
2022-09-27T07:15:41.973Z,984.9
2022-09-27T07:16:45.399Z,984.9
2022-09-27T07:17:48.607Z,984.9
2022-09-27T07:18:51.597Z,984.9
2022-09-27T07:19:55.415Z,984.9
2022-09-27T07:21:00.803Z,985
2022-09-27T07:22:03.252Z,985
2022-09-27T07:23:07.087Z,985
2022-09-27T07:24:09.915Z,985
2022-09-27T07:25:12.493Z,985
2022-09-27T07:26:15.287Z,984.9
2022-09-27T07:27:19.295Z,984.9
2022-09-27T07:28:22.996Z,984.9
2022-09-27T07:29:26.089Z,985
2022-09-27T07:30:29.895Z,985
2022-09-27T07:31:33.816Z,985
2022-09-27T07:32:36.143Z,985
2022-09-27T07:33:43.877Z,985
2022-09-27T07:34:47.234Z,985
2022-09-27T07:35:50.584Z,985
2022-09-27T07:36:53.423Z,985
2022-09-27T07:37:56.919Z,985
2022-09-27T07:39:00.719Z,985
2022-09-27T07:40:03.622Z,985
2022-09-27T07:41:06.803Z,985
2022-09-27T07:42:09.693Z,985
2022-09-27T07:43:13.397Z,985
2022-09-27T07:44:15.918Z,985
2022-09-27T07:45:18.880Z,985
2022-09-27T07:46:22.162Z,985
2022-09-27T07:47:25.805Z,985
2022-09-27T07:48:28.671Z,985
2022-09-27T07:49:32.102Z,985
2022-09-27T07:50:35.191Z,985
2022-09-27T07:51:38.456Z,985
2022-09-27T07:52:41.454Z,985
2022-09-27T07:53:44.636Z,985
2022-09-27T07:54:48.773Z,985
2022-09-27T07:55:51.956Z,985
2022-09-27T07:56:55.310Z,985
2022-09-27T07:57:58.100Z,985
2022-09-27T07:59:00.991Z,985.1
2022-09-27T08:00:03.790Z,985
2022-09-27T08:01:06.753Z,985
2022-09-27T08:02:10.635Z,985
2022-09-27T08:03:14.033Z,985
2022-09-27T08:04:17.223Z,985
2022-09-27T08:05:20.356Z,985.1
2022-09-27T08:06:23.352Z,985
2022-09-27T08:07:26.125Z,985
2022-09-27T08:08:29.316Z,985
2022-09-27T08:09:32.666Z,985
2022-09-27T08:10:36.537Z,985
2022-09-27T08:11:39.343Z,985
2022-09-27T08:12:41.643Z,985
2022-09-27T08:13:44.514Z,985.1
2022-09-27T08:14:48.956Z,985
2022-09-27T08:15:51.866Z,985
2022-09-27T08:16:55.622Z,985
2022-09-27T08:17:58.435Z,985
2022-09-27T08:19:01.582Z,985
2022-09-27T08:20:04.467Z,985
2022-09-27T08:21:08.084Z,985
2022-09-27T08:22:11.045Z,985
2022-09-27T08:23:12.929Z,985
2022-09-27T08:24:16.110Z,985
2022-09-27T08:25:19.925Z,985
2022-09-27T08:26:24.038Z,985
2022-09-27T08:27:27.594Z,985
2022-09-27T08:28:30.390Z,985
2022-09-27T08:29:33.576Z,985
2022-09-27T08:30:36.566Z,985
2022-09-27T08:31:39.599Z,985
2022-09-27T08:32:43.039Z,985
2022-09-27T08:33:46.467Z,985
2022-09-27T08:34:48.992Z,985.1
2022-09-27T08:35:51.690Z,985.1
2022-09-27T08:36:55.761Z,985.1
2022-09-27T08:37:59.215Z,985.1
2022-09-27T08:39:02.364Z,985.1
2022-09-27T08:40:06.183Z,985.1
2022-09-27T08:41:09.911Z,985.1
2022-09-27T08:42:14.183Z,985.1
2022-09-27T08:43:17.272Z,985.1
2022-09-27T08:44:20.334Z,985.1
2022-09-27T08:45:23.368Z,985.1
2022-09-27T08:46:26.347Z,985.1
2022-09-27T08:47:30.009Z,985.1
2022-09-27T08:48:33.476Z,985.1
2022-09-27T08:49:36.918Z,985.1
2022-09-27T08:50:40.636Z,985.1
2022-09-27T08:51:43.794Z,985.1
2022-09-27T08:52:46.230Z,985.1
2022-09-27T08:53:49.386Z,985.1
2022-09-27T08:54:52.380Z,985.1
2022-09-27T08:55:56.068Z,985.1
2022-09-27T08:56:59.142Z,985.1
2022-09-27T08:58:03.079Z,985.1
2022-09-27T08:59:06.820Z,985.1
2022-09-27T09:00:09.885Z,985.1
2022-09-27T09:01:13.158Z,985.1
2022-09-27T09:02:17.200Z,985.1
2022-09-27T09:03:21.309Z,985.1
2022-09-27T09:04:24.415Z,985.1
2022-09-27T09:05:27.215Z,985
2022-09-27T09:06:30.447Z,985
2022-09-27T09:07:33.790Z,985
2022-09-27T09:08:44.444Z,985.1
2022-09-27T09:09:53.771Z,985.1
2022-09-27T09:10:56.758Z,985.1
2022-09-27T09:11:59.731Z,985.1
2022-09-27T09:13:03.430Z,985.1
2022-09-27T09:14:13.733Z,985.2
2022-09-27T09:15:19.039Z,985.1
2022-09-27T09:16:22.614Z,985.2
2022-09-27T09:17:25.797Z,985.1
2022-09-27T09:18:29.210Z,985.2
2022-09-27T09:19:32.289Z,985.3
2022-09-27T09:20:36.021Z,985.3
2022-09-27T09:21:39.422Z,985.2
2022-09-27T09:22:43.423Z,985.2
2022-09-27T09:23:45.930Z,985.3
2022-09-27T09:24:49.086Z,985.3
2022-09-27T09:25:52.147Z,985.3
2022-09-27T09:26:57.905Z,985.3
2022-09-27T09:28:02.949Z,985.3
2022-09-27T09:29:05.277Z,985.3
2022-09-27T09:30:09.176Z,985.3
2022-09-27T09:31:12.896Z,985.3
2022-09-27T09:32:15.768Z,985.3
2022-09-27T09:33:18.566Z,985.3
2022-09-27T09:34:22.100Z,985.3
2022-09-27T09:35:24.701Z,985.3
2022-09-27T09:36:28.441Z,985.3
2022-09-27T09:37:31.595Z,985.3
2022-09-27T09:38:34.670Z,985.3
2022-09-27T09:39:37.747Z,985.2
2022-09-27T09:40:40.994Z,985.2
2022-09-27T09:41:44.412Z,985.2
2022-09-27T09:42:46.657Z,985.2
2022-09-27T09:43:49.558Z,985.3
2022-09-27T09:44:52.784Z,985.2
2022-09-27T09:45:57.088Z,985.3
2022-09-27T09:47:00.609Z,985.2
2022-09-27T09:48:03.947Z,985.2
2022-09-27T09:49:07.666Z,985.2
2022-09-27T09:50:10.753Z,985.2
2022-09-27T09:51:14.255Z,985.2
2022-09-27T09:52:17.684Z,985.2
2022-09-27T09:53:20.544Z,985.2
2022-09-27T09:54:23.061Z,985.2
2022-09-27T09:55:26.223Z,985.2
2022-09-27T09:56:29.969Z,985.2
2022-09-27T09:57:33.428Z,985.1
2022-09-27T09:58:36.593Z,985.1
2022-09-27T09:59:39.504Z,985.1
2022-09-27T10:00:42.111Z,985.1
2022-09-27T10:01:46.832Z,985.1
2022-09-27T10:02:50.243Z,985.1
2022-09-27T10:03:54.023Z,985.1
2022-09-27T10:04:57.736Z,985.2
2022-09-27T10:06:03.916Z,985.1
2022-09-27T10:07:06.777Z,985.2
2022-09-27T10:08:09.565Z,985.2
2022-09-27T10:09:12.157Z,985.2
2022-09-27T10:10:15.329Z,985.2
2022-09-27T10:11:18.668Z,985.2
2022-09-27T10:12:21.747Z,985.2
2022-09-27T10:13:25.176Z,985.2
2022-09-27T10:14:28.428Z,985.2
2022-09-27T10:15:31.707Z,985.2
2022-09-27T10:16:34.302Z,985.2
2022-09-27T10:17:38.444Z,985.2
2022-09-27T10:18:49.773Z,985.2
2022-09-27T10:19:52.747Z,985.2
2022-09-27T10:20:56.372Z,985.2
2022-09-27T10:21:59.163Z,985.1
2022-09-27T10:23:02.257Z,985.2
2022-09-27T10:24:05.337Z,985.1
2022-09-27T10:25:08.564Z,985.2
2022-09-27T10:26:11.280Z,985.1
2022-09-27T10:27:14.703Z,985.1
2022-09-27T10:28:17.856Z,985.1
2022-09-27T10:29:21.591Z,985.1
2022-09-27T10:30:24.297Z,985.1
2022-09-27T10:31:27.126Z,985.1
2022-09-27T10:32:30.057Z,985.1
2022-09-27T10:33:34.129Z,985.1
2022-09-27T10:34:37.297Z,985.1
2022-09-27T10:35:39.898Z,985.1
2022-09-27T10:36:42.631Z,985
2022-09-27T10:37:45.423Z,985.1
2022-09-27T10:38:48.213Z,985.1
2022-09-27T10:39:50.720Z,985
2022-09-27T10:40:53.947Z,985
2022-09-27T10:41:57.861Z,985
2022-09-27T10:43:00.654Z,985.1
2022-09-27T10:44:04.370Z,985.1
2022-09-27T10:45:07.813Z,985.1
2022-09-27T10:46:11.036Z,985.1
2022-09-27T10:47:14.553Z,985.1
2022-09-27T10:48:18.007Z,985.1
2022-09-27T10:49:22.168Z,985.1
2022-09-27T10:50:51.498Z,985.1
2022-09-27T10:52:02.597Z,985.2
2022-09-27T10:53:05.455Z,985.2
2022-09-27T10:54:08.524Z,985.2
2022-09-27T10:55:12.196Z,985.2
2022-09-27T10:56:15.735Z,985.3
2022-09-27T10:57:19.161Z,985.3
2022-09-27T10:58:22.265Z,985.3
2022-09-27T10:59:25.986Z,985.2
2022-09-27T11:00:29.429Z,985.2
2022-09-27T11:01:32.393Z,985.3
2022-09-27T11:02:35.339Z,985.3
2022-09-27T11:03:38.577Z,985.3
2022-09-27T11:04:42.897Z,985.2
2022-09-27T11:05:46.607Z,985.2
2022-09-27T11:06:49.801Z,985.2
2022-09-27T11:07:52.235Z,985.2
2022-09-27T11:08:55.368Z,985.2
2022-09-27T11:09:58.745Z,985.2
2022-09-27T11:11:01.902Z,985.3
2022-09-27T11:12:05.407Z,985.3
2022-09-27T11:13:09.147Z,985.3
2022-09-27T11:14:12.281Z,985.3
2022-09-27T11:15:15.500Z,985.4
2022-09-27T11:16:18.253Z,985.5
2022-09-27T11:17:21.529Z,985.5
2022-09-27T11:18:25.258Z,985.5
2022-09-27T11:19:28.880Z,985.6
2022-09-27T11:20:33.015Z,985.6
2022-09-27T11:21:36.137Z,985.6
2022-09-27T11:22:39.489Z,985.6
2022-09-27T11:23:43.198Z,985.6
2022-09-27T11:24:46.381Z,985.6
2022-09-27T11:25:49.243Z,985.6
2022-09-27T11:26:52.388Z,985.6
2022-09-27T11:27:55.562Z,985.6
2022-09-27T11:28:59.020Z,985.6
2022-09-27T11:30:01.899Z,985.6
2022-09-27T11:31:04.700Z,985.6
2022-09-27T11:32:07.905Z,985.5
2022-09-27T11:33:10.794Z,985.5
2022-09-27T11:34:14.012Z,985.5
2022-09-27T11:35:17.736Z,985.5
2022-09-27T11:36:21.558Z,985.5
2022-09-27T11:37:23.712Z,985.6
2022-09-27T11:38:53.389Z,985.5
2022-09-27T11:40:05.106Z,985.5
2022-09-27T11:41:09.166Z,985.5
2022-09-27T11:42:11.585Z,985.6
2022-09-27T11:43:15.011Z,985.6
2022-09-27T11:44:17.891Z,985.5
2022-09-27T11:45:56.846Z,985.6
2022-09-27T11:47:59.493Z,985.5
2022-09-27T11:49:03.205Z,985.6
2022-09-27T11:50:06.023Z,985.5
2022-09-27T11:51:09.111Z,985.6
2022-09-27T11:52:13.263Z,985.5
2022-09-27T11:53:16.679Z,985.6
2022-09-27T11:54:20.062Z,985.6
2022-09-27T11:55:22.859Z,985.6
2022-09-27T11:56:26.385Z,985.6
2022-09-27T11:57:30.116Z,985.7
2022-09-27T11:58:32.721Z,985.8
2022-09-27T11:59:35.615Z,985.7
2022-09-27T12:00:38.787Z,985.8
2022-09-27T12:01:41.723Z,985.8
2022-09-27T12:02:46.246Z,985.7
2022-09-27T12:03:49.809Z,985.7
2022-09-27T12:04:52.882Z,985.7
2022-09-27T12:06:02.482Z,985.7
2022-09-27T12:07:10.300Z,985.7
2022-09-27T12:08:14.416Z,985.7
2022-09-27T12:09:18.052Z,985.7
2022-09-27T12:10:21.502Z,985.7
2022-09-27T12:11:24.922Z,985.7
2022-09-27T12:12:28.301Z,985.7
2022-09-27T12:13:31.382Z,985.6
2022-09-27T12:14:34.819Z,985.7
2022-09-27T12:15:37.786Z,985.7
2022-09-27T12:16:40.848Z,985.8
2022-09-27T12:17:43.988Z,985.8
2022-09-27T12:18:51.865Z,985.8
2022-09-27T12:19:54.431Z,985.8
2022-09-27T12:20:57.695Z,985.8
2022-09-27T12:22:00.706Z,985.8
2022-09-27T12:23:03.141Z,985.8
2022-09-27T12:24:07.303Z,985.8
2022-09-27T12:25:10.746Z,985.8
2022-09-27T12:26:13.568Z,985.8
2022-09-27T12:27:16.739Z,985.8
2022-09-27T12:28:28.241Z,985.9
2022-09-27T12:29:31.552Z,985.8
2022-09-27T12:30:34.629Z,985.8
2022-09-27T12:31:38.258Z,985.8
2022-09-27T12:32:42.198Z,985.8
2022-09-27T12:33:45.616Z,985.8
2022-09-27T12:34:48.332Z,985.8
2022-09-27T12:35:51.129Z,985.8
2022-09-27T12:36:54.265Z,985.8
2022-09-27T12:37:58.343Z,985.9
2022-09-27T12:39:01.148Z,985.8
2022-09-27T12:40:05.403Z,985.7
2022-09-27T12:41:09.405Z,985.9
2022-09-27T12:42:12.500Z,985.9
2022-09-27T12:43:15.676Z,985.9
2022-09-27T12:44:19.132Z,985.9
2022-09-27T12:45:22.862Z,985.9
2022-09-27T12:46:26.353Z,985.9
2022-09-27T12:47:29.527Z,985.9
2022-09-27T12:48:32.440Z,985.9
2022-09-27T12:49:35.586Z,985.9
2022-09-27T12:50:38.483Z,985.9
2022-09-27T12:51:41.021Z,985.9
2022-09-27T12:52:44.752Z,985.9
2022-09-27T12:53:48.039Z,985.9
2022-09-27T12:54:51.052Z,985.9
2022-09-27T12:55:54.966Z,985.9
2022-09-27T12:56:58.202Z,985.9
2022-09-27T12:58:01.195Z,985.9
2022-09-27T12:59:03.985Z,986
2022-09-27T13:00:06.297Z,985.9
2022-09-27T13:01:09.403Z,985.9
2022-09-27T13:02:12.515Z,985.9
2022-09-27T13:03:19.482Z,985.9
2022-09-27T13:04:29.621Z,986
2022-09-27T13:05:32.691Z,985.9
2022-09-27T13:06:35.847Z,985.9
2022-09-27T13:07:39.079Z,986
2022-09-27T13:08:42.251Z,985.9
2022-09-27T13:09:45.261Z,985.9
2022-09-27T13:10:48.456Z,985.9
2022-09-27T13:11:52.654Z,985.9
2022-09-27T13:12:56.084Z,985.9
2022-09-27T13:13:58.880Z,986
2022-09-27T13:15:02.334Z,986
2022-09-27T13:16:05.416Z,985.9
2022-09-27T13:17:08.537Z,986
2022-09-27T13:18:11.511Z,985.9
2022-09-27T13:19:14.248Z,986
2022-09-27T13:20:18.254Z,986
2022-09-27T13:21:21.676Z,986
2022-09-27T13:22:24.827Z,986.1
2022-09-27T13:23:28.014Z,986
2022-09-27T13:24:30.804Z,986.1
2022-09-27T13:25:34.274Z,986.1
2022-09-27T13:26:37.757Z,986.1
2022-09-27T13:27:41.984Z,986.1
2022-09-27T13:28:44.412Z,986
2022-09-27T13:29:47.773Z,986.1
2022-09-27T13:30:51.138Z,986.1
2022-09-27T13:31:54.341Z,986.1
2022-09-27T13:32:57.778Z,986.1
2022-09-27T13:34:00.571Z,986.1
2022-09-27T13:35:04.005Z,986.1
2022-09-27T13:36:06.834Z,986.1
2022-09-27T13:37:09.280Z,986.1
2022-09-27T13:38:12.450Z,986.1
2022-09-27T13:42:16.316Z,986.1
2022-09-27T13:43:20.519Z,986.1
2022-09-27T13:44:23.701Z,986.1
2022-09-27T13:45:26.503Z,986.2
2022-09-27T13:46:29.754Z,986.1
2022-09-27T13:47:33.387Z,986.2
2022-09-27T13:48:36.545Z,986.2
2022-09-27T13:49:39.922Z,986.2
2022-09-27T13:50:43.375Z,986.2